Terminal Aerodrome Forecast
Issued by NWS

Home | Current Version | Previous Version | Text Only | Print | Product List | Glossary On
Versions: 1 2 3 4 5 6 7 8 9 10 11 12 13 14 15 16 17 18 19 20 21 22 23 24
687
FTUS46 KLOX 242048 AAA
TAFLAX
TAF AMD
KLAX 242048Z 2421/2524 26009KT P6SM SCT250
     FM250400 VRB03KT P6SM SCT250
     FM251300 00000KT 6SM BR VCFG SCT004 SCT250
     FM251600 12004KT P6SM BKN250
     FM252000 25008KT P6SM BKN250=

USA.gov is the U.S. government's official web portal to all federal, state and local government web resources and services.